Terminal Aerodrome Forecast
Issued by NWS

Home | Current Version | Previous Version | Graphics & Text | Print | Product List | Glossary Off
Versions: 1 2 3 4 5 6 7 8 9 10 11 12 13 14 15 16

000
FTUS43 KDDC 270539
TAFGCK
TAF
KGCK 270539Z 2706/2806 14008KT P6SM FEW250
     FM271500 18013G18KT P6SM FEW250
     FM271700 20015G22KT P6SM SCT250
     FM280100 18010KT P6SM SCT200=

USA.gov is the U.S. government's official web portal to all federal, state and local government web resources and services.